Terminal Aerodrome Forecast
Issued by NWS

Home | Current Version | Previous Version | Text Only | Print | Product List | Glossary Off
Versions: 1 2 3 4 5 6 7 8 9 10 11 12 13 14 15 16 17 18 19 20

794
FTUS43 KGRB 262331
TAFCWA
TAF
KCWA 262331Z 2700/2724 26009G18KT P6SM SCT030 BKN060
     FM270300 29005KT P6SM SCT060
     FM270600 VRB03KT P6SM BKN120
     FM271700 17006KT P6SM BKN120=

USA.gov is the U.S. government's official web portal to all federal, state and local government web resources and services.